Evelyn James — WDI8937 — position and weather

sailwx.info

Track history (hours):
 
Tides and Currents Weather Stations Pressure Air Temp Water Temp Dewpoint Dewpoint Depression Visibility Wind Speed Wind Dir Waves Ship Positions

Evelyn James

Owner: NGL Marine, LLC, Deer Park, TX. More information available from US FCC via Universal Licensing System and Coast Guard Vessel Documentation Center.

Last reported at 2017-Dec-11 14:29 UTC. Time now 2017-Dec-13 22:21 UTC.
Position N 29°50' W 093°59'.

Length 25 m.

Type: Pilot. MMSI: 367743660.

Date/timePositionNaut miles runAvg speedWind from/ knotsBaromVisibWave heightAir tempDewpointWater temp
2017-Dec-11 14:29N 29°50' W 093°59'0 0.0
2017-Dec-11 14:00N 29°50' W 093°59'0 0.0
2017-Dec-11 13:30N 29°50' W 093°59'0 0.0
2017-Dec-11 07:14N 29°50' W 093°59'50 2.2
2017-Dec-10 08:33N 29°24' W 094°49'0 6.4
2017-Dec-10 08:30N 29°24' W 094°49'5 6.4
2017-Dec-10 07:45N 29°28' W 094°51'2 6.4
2017-Dec-10 07:30N 29°30' W 094°52'3 6.4
2017-Dec-10 07:00N 29°33' W 094°54'3 6.1
2017-Dec-10 06:30N 29°35' W 094°56'3 6.1
2017-Dec-10 06:00N 29°38' W 094°58'3 6.3
2017-Dec-10 05:30N 29°41' W 094°59'3 5.7
2017-Dec-10 04:57N 29°43' W 095°01'3 5.8
2017-Dec-10 04:30N 29°45' W 095°04'2 3.1
2017-Dec-10 03:53N 29°45' W 095°06'0 0.1
2017-Dec-10 03:26N 29°45' W 095°06'0 0.0
2017-Dec-10 03:00N 29°45' W 095°06'0 0.0
2017-Dec-10 02:30N 29°45' W 095°06'0 0.0
2017-Dec-10 01:57N 29°45' W 095°06'0 0.0
2017-Dec-10 01:28N 29°45' W 095°06'0 0.0
2017-Dec-10 00:58N 29°45' W 095°06'0 0.0
2017-Dec-10 00:28N 29°45' W 095°06'0 0.0
2017-Dec-09 19:11N 29°45' W 095°06'0 0.0
2017-Dec-09 18:42N 29°45' W 095°06'0 0.0
2017-Dec-09 16:16N 29°45' W 095°06'0 0.0
2017-Dec-09 15:54N 29°45' W 095°06'0 0.0
2017-Dec-09 15:29N 29°45' W 095°06'0 0.0
2017-Dec-09 15:00N 29°45' W 095°06'0 0.0
2017-Dec-09 14:31N 29°45' W 095°06'0 0.0
2017-Dec-09 14:00N 29°45' W 095°06'0 0.0
2017-Dec-09 13:30N 29°45' W 095°06'0 0.0
2017-Dec-09 13:00N 29°45' W 095°06'0 0.0
2017-Dec-09 12:28N 29°45' W 095°06'0 0.0
2017-Dec-09 12:01N 29°45' W 095°06'0 0.0
2017-Dec-09 11:29N 29°45' W 095°06'0 0.0
2017-Dec-09 11:01N 29°45' W 095°06'0 0.0
2017-Dec-09 10:29N 29°45' W 095°06'0 0.0
2017-Dec-09 10:00N 29°45' W 095°06'0 0.0
2017-Dec-09 09:30N 29°45' W 095°06'0 0.0
2017-Dec-09 08:59N 29°45' W 095°06'0 0.0
2017-Dec-09 08:30N 29°45' W 095°06'0 0.0
2017-Dec-09 08:00N 29°45' W 095°06'0 0.0
2017-Dec-09 07:30N 29°45' W 095°06'0 0.0
2017-Dec-09 07:00N 29°45' W 095°06'0 0.0
2017-Dec-09 06:30N 29°45' W 095°06'0 0.0
2017-Dec-09 06:00N 29°45' W 095°06'0 0.0
2017-Dec-09 05:30N 29°45' W 095°06'0 0.0
2017-Dec-09 05:01N 29°45' W 095°06'0 0.0
2017-Dec-09 04:28N 29°45' W 095°06'1 1.4
2017-Dec-09 03:58N 29°46' W 095°05'2 3.0
2017-Dec-09 03:27N 29°45' W 095°04'1 2.3
2017-Dec-09 02:54N 29°44' W 095°03'0 0.0
2017-Dec-09 02:19N 29°44' W 095°03'0 0.0
2017-Dec-08 04:12N 29°44' W 095°03'0 0.1
2017-Dec-08 04:00N 29°44' W 095°03'0 0.1
2017-Dec-08 03:25N 29°44' W 095°03'0 0.8
2017-Dec-08 03:00N 29°44' W 095°03'3 3.4
2017-Dec-08 02:01N 29°47' W 095°04'0 0.5
2017-Dec-08 01:50N 29°47' W 095°04'0 0.0
2017-Dec-08 01:14N 29°47' W 095°04'0 0.0
2017-Dec-08 00:58N 29°47' W 095°04'0 0.1
2017-Dec-08 00:27N 29°47' W 095°04'0 0.0
2017-Dec-07 23:56N 29°47' W 095°04'2 0.3
2017-Dec-07 19:18N 29°47' W 095°05'0 0.0
2017-Dec-07 18:52N 29°47' W 095°05'0 0.0
2017-Dec-07 13:25N 29°47' W 095°05'  
2017-Dec-03 18:34N 29°44' W 095°03'0 0.1
2017-Dec-03 18:30N 29°44' W 095°03'0 0.1
2017-Dec-03 17:48N 29°44' W 095°03'0 0.6
2017-Dec-03 17:22N 29°44' W 095°03'0 0.6
2017-Dec-03 17:00N 29°44' W 095°03'0 0.0
2017-Dec-03 14:16N 29°44' W 095°03'0 0.0
2017-Dec-03 12:31N 29°44' W 095°03'0 0.0
2017-Dec-03 12:24N 29°44' W 095°03'0 0.0
2017-Dec-03 11:57N 29°44' W 095°03'0 0.0
2017-Dec-03 11:29N 29°44' W 095°03'0 0.0
2017-Dec-03 11:00N 29°44' W 095°03'0 0.0
2017-Dec-03 10:28N 29°44' W 095°03'0 0.0
2017-Dec-03 09:58N 29°44' W 095°03'0 0.0
2017-Dec-03 09:25N 29°44' W 095°03'0 0.0
2017-Dec-03 08:57N 29°44' W 095°03'0 0.0
2017-Dec-03 08:27N 29°44' W 095°03'0 0.0
2017-Dec-03 07:59N 29°44' W 095°03'0 0.0
2017-Dec-03 07:12N 29°44' W 095°03'0 0.0
2017-Dec-03 07:00N 29°44' W 095°03'0 0.0
2017-Dec-03 06:21N 29°44' W 095°03'0 0.0
2017-Dec-03 05:44N 29°44' W 095°03'0 0.0
2017-Dec-03 05:26N 29°44' W 095°03'0 0.0
2017-Dec-03 05:00N 29°44' W 095°03'0 0.0
2017-Dec-03 04:28N 29°44' W 095°03'0 0.0
2017-Dec-03 03:59N 29°44' W 095°03'0 0.0
2017-Dec-03 03:29N 29°44' W 095°03'0 0.0
2017-Dec-03 02:47N 29°44' W 095°03'0 0.0
2017-Dec-03 01:51N 29°44' W 095°03'0 0.0
2017-Dec-03 00:59N 29°44' W 095°03'1 1.4
2017-Dec-03 00:30N 29°44' W 095°04'3 2.4
2017-Dec-02 23:12N 29°48' W 095°04'0 0.5
2017-Dec-02 22:38N 29°47' W 095°04'1 0.1
2017-Dec-02 07:30N 29°47' W 095°05'0 0.0
2017-Dec-02 06:53N 29°47' W 095°05'0 0.0
2017-Dec-02 06:29N 29°47' W 095°05'0 0.0
2017-Dec-02 06:00N 29°47' W 095°05'0 0.0
2017-Dec-02 02:09N 29°47' W 095°05'0 0.0
2017-Dec-02 01:52N 29°47' W 095°05'0 0.0
2017-Dec-02 01:30N 29°47' W 095°05'2 0.3
2017-Dec-01 21:00N 29°47' W 095°04'2 2.3
2017-Dec-01 20:13N 29°46' W 095°05'2 6.2
2017-Dec-01 19:52N 29°44' W 095°07'4 6.8
2017-Dec-01 19:17N 29°45' W 095°11'2 6.7
2017-Dec-01 19:00N 29°43' W 095°13'0 0.1
2017-Dec-01 15:06N 29°43' W 095°13'0 0.0
2017-Dec-01 14:56N 29°43' W 095°13'  
Track history (hours):
 
Tides and Currents Weather Stations Pressure Air Temp Water Temp Dewpoint Dewpoint Depression Visibility Wind Speed Wind Dir Waves Ship Positions

Evelyn James

Owner: NGL Marine, LLC, Deer Park, TX. More information available from US FCC via Universal Licensing System and Coast Guard Vessel Documentation Center.

Last reported at 2017-Dec-11 14:29 UTC. Time now 2017-Dec-13 22:21 UTC.
Position N 29°50' W 093°59'.

Length 25 m.

Type: Pilot. MMSI: 367743660.

Date/timePositionNaut miles runAvg speedWind from/ knotsBaromVisibWave heightAir tempDewpointWater temp
2017-Dec-11 14:29N 29°50' W 093°59'0 0.0
2017-Dec-11 14:00N 29°50' W 093°59'0 0.0
2017-Dec-11 13:30N 29°50' W 093°59'0 0.0
2017-Dec-11 07:14N 29°50' W 093°59'50 2.2
2017-Dec-10 08:33N 29°24' W 094°49'0 6.4
2017-Dec-10 08:30N 29°24' W 094°49'5 6.4
2017-Dec-10 07:45N 29°28' W 094°51'2 6.4
2017-Dec-10 07:30N 29°30' W 094°52'3 6.4
2017-Dec-10 07:00N 29°33' W 094°54'3 6.1
2017-Dec-10 06:30N 29°35' W 094°56'3 6.1
2017-Dec-10 06:00N 29°38' W 094°58'3 6.3
2017-Dec-10 05:30N 29°41' W 094°59'3 5.7
2017-Dec-10 04:57N 29°43' W 095°01'3 5.8
2017-Dec-10 04:30N 29°45' W 095°04'2 3.1
2017-Dec-10 03:53N 29°45' W 095°06'0 0.1
2017-Dec-10 03:26N 29°45' W 095°06'0 0.0
2017-Dec-10 03:00N 29°45' W 095°06'0 0.0
2017-Dec-10 02:30N 29°45' W 095°06'0 0.0
2017-Dec-10 01:57N 29°45' W 095°06'0 0.0
2017-Dec-10 01:28N 29°45' W 095°06'0 0.0
2017-Dec-10 00:58N 29°45' W 095°06'0 0.0
2017-Dec-10 00:28N 29°45' W 095°06'0 0.0
2017-Dec-09 19:11N 29°45' W 095°06'0 0.0
2017-Dec-09 18:42N 29°45' W 095°06'0 0.0
2017-Dec-09 16:16N 29°45' W 095°06'0 0.0
2017-Dec-09 15:54N 29°45' W 095°06'0 0.0
2017-Dec-09 15:29N 29°45' W 095°06'0 0.0
2017-Dec-09 15:00N 29°45' W 095°06'0 0.0
2017-Dec-09 14:31N 29°45' W 095°06'0 0.0
2017-Dec-09 14:00N 29°45' W 095°06'0 0.0
2017-Dec-09 13:30N 29°45' W 095°06'0 0.0
2017-Dec-09 13:00N 29°45' W 095°06'0 0.0
2017-Dec-09 12:28N 29°45' W 095°06'0 0.0
2017-Dec-09 12:01N 29°45' W 095°06'0 0.0
2017-Dec-09 11:29N 29°45' W 095°06'0 0.0
2017-Dec-09 11:01N 29°45' W 095°06'0 0.0
2017-Dec-09 10:29N 29°45' W 095°06'0 0.0
2017-Dec-09 10:00N 29°45' W 095°06'0 0.0
2017-Dec-09 09:30N 29°45' W 095°06'0 0.0
2017-Dec-09 08:59N 29°45' W 095°06'0 0.0
2017-Dec-09 08:30N 29°45' W 095°06'0 0.0
2017-Dec-09 08:00N 29°45' W 095°06'0 0.0
2017-Dec-09 07:30N 29°45' W 095°06'0 0.0
2017-Dec-09 07:00N 29°45' W 095°06'0 0.0
2017-Dec-09 06:30N 29°45' W 095°06'0 0.0
2017-Dec-09 06:00N 29°45' W 095°06'0 0.0
2017-Dec-09 05:30N 29°45' W 095°06'0 0.0
2017-Dec-09 05:01N 29°45' W 095°06'0 0.0
2017-Dec-09 04:28N 29°45' W 095°06'1 1.4
2017-Dec-09 03:58N 29°46' W 095°05'2 3.0
2017-Dec-09 03:27N 29°45' W 095°04'1 2.3
2017-Dec-09 02:54N 29°44' W 095°03'0 0.0
2017-Dec-09 02:19N 29°44' W 095°03'0 0.0
2017-Dec-08 04:12N 29°44' W 095°03'0 0.1
2017-Dec-08 04:00N 29°44' W 095°03'0 0.1
2017-Dec-08 03:25N 29°44' W 095°03'0 0.8
2017-Dec-08 03:00N 29°44' W 095°03'3 3.4
2017-Dec-08 02:01N 29°47' W 095°04'0 0.5
2017-Dec-08 01:50N 29°47' W 095°04'0 0.0
2017-Dec-08 01:14N 29°47' W 095°04'0 0.0
2017-Dec-08 00:58N 29°47' W 095°04'0 0.1
2017-Dec-08 00:27N 29°47' W 095°04'0 0.0
2017-Dec-07 23:56N 29°47' W 095°04'2 0.3
2017-Dec-07 19:18N 29°47' W 095°05'0 0.0
2017-Dec-07 18:52N 29°47' W 095°05'0 0.0
2017-Dec-07 13:25N 29°47' W 095°05'  
2017-Dec-03 18:34N 29°44' W 095°03'0 0.1
2017-Dec-03 18:30N 29°44' W 095°03'0 0.1
2017-Dec-03 17:48N 29°44' W 095°03'0 0.6
2017-Dec-03 17:22N 29°44' W 095°03'0 0.6
2017-Dec-03 17:00N 29°44' W 095°03'0 0.0
2017-Dec-03 14:16N 29°44' W 095°03'0 0.0
2017-Dec-03 12:31N 29°44' W 095°03'0 0.0
2017-Dec-03 12:24N 29°44' W 095°03'0 0.0
2017-Dec-03 11:57N 29°44' W 095°03'0 0.0
2017-Dec-03 11:29N 29°44' W 095°03'0 0.0
2017-Dec-03 11:00N 29°44' W 095°03'0 0.0
2017-Dec-03 10:28N 29°44' W 095°03'0 0.0
2017-Dec-03 09:58N 29°44' W 095°03'0 0.0
2017-Dec-03 09:25N 29°44' W 095°03'0 0.0
2017-Dec-03 08:57N 29°44' W 095°03'0 0.0
2017-Dec-03 08:27N 29°44' W 095°03'0 0.0
2017-Dec-03 07:59N 29°44' W 095°03'0 0.0
2017-Dec-03 07:12N 29°44' W 095°03'0 0.0
2017-Dec-03 07:00N 29°44' W 095°03'0 0.0
2017-Dec-03 06:21N 29°44' W 095°03'0 0.0
2017-Dec-03 05:44N 29°44' W 095°03'0 0.0
2017-Dec-03 05:26N 29°44' W 095°03'0 0.0
2017-Dec-03 05:00N 29°44' W 095°03'0 0.0
2017-Dec-03 04:28N 29°44' W 095°03'0 0.0
2017-Dec-03 03:59N 29°44' W 095°03'0 0.0
2017-Dec-03 03:29N 29°44' W 095°03'0 0.0
2017-Dec-03 02:47N 29°44' W 095°03'0 0.0
2017-Dec-03 01:51N 29°44' W 095°03'0 0.0
2017-Dec-03 00:59N 29°44' W 095°03'1 1.4
2017-Dec-03 00:30N 29°44' W 095°04'3 2.4
2017-Dec-02 23:12N 29°48' W 095°04'0 0.5
2017-Dec-02 22:38N 29°47' W 095°04'1 0.1
2017-Dec-02 07:30N 29°47' W 095°05'0 0.0
2017-Dec-02 06:53N 29°47' W 095°05'0 0.0
2017-Dec-02 06:29N 29°47' W 095°05'0 0.0
2017-Dec-02 06:00N 29°47' W 095°05'0 0.0
2017-Dec-02 02:09N 29°47' W 095°05'0 0.0
2017-Dec-02 01:52N 29°47' W 095°05'0 0.0
2017-Dec-02 01:30N 29°47' W 095°05'2 0.3
2017-Dec-01 21:00N 29°47' W 095°04'2 2.3
2017-Dec-01 20:13N 29°46' W 095°05'2 6.2
2017-Dec-01 19:52N 29°44' W 095°07'4 6.8
2017-Dec-01 19:17N 29°45' W 095°11'2 6.7
2017-Dec-01 19:00N 29°43' W 095°13'0 0.1
2017-Dec-01 15:06N 29°43' W 095°13'0 0.0
2017-Dec-01 14:56N 29°43' W 095°13'  

Dump ship's entire track history